KISM

Kissimmee Gateway Airport

Orlando, Florida, USA
KISM 142208Z 1422/1518 16010KT P6SM VCSH FEW040 OVC080 TEMPO 1422/1501 4SM SHRA BKN030 FM150100 19007KT 6SM SHRA VCTS SCT015 BKN030CB FM150600 21006KT P6SM VCSH SCT007 BKN025 FM151300 VRB05KT P6SM SCT010 BKN020
Issued Valid From Valid To
Dec-14 @ 22:08 UTC
(13 minutes ago)
Dec-14 @ 22:00 UTC
(21 minutes ago)
Dec-15 @ 18:00 UTC
(in 20 hours)
Dec-14 @ 22:00 to Dec-15 @ 01:00
KISM 142208Z 1422/1518 16010KT P6SM VCSH FEW040 OVC080
Wind Visibility Clouds
160° at 10 knots Greater than 6 miles
  • Few at 4,000' AGL
  • Overcast at 8,000' AGL
Temporary Dec-14 @ 22:00 to Dec-15 @ 01:00
TEMPO 1422/1501 4SM SHRA BKN030
Visibility Clouds Conditions
4 miles
  • Broken at 3,000' AGL
  • Rain
From Dec-15 @ 01:00 to Dec-15 @ 06:00
FM150100 19007KT 6SM SHRA VCTS SCT015 BKN030CB
Wind Visibility Clouds Conditions
190° at 7 knots 6 miles
  • Scattered at 1,500' AGL
  • Broken at 3,000' AGL
  • Rain
  • Area Thunderstorm
From Dec-15 @ 06:00 to Dec-15 @ 13:00
FM150600 21006KT P6SM VCSH SCT007 BKN025
Wind Visibility Clouds
210° at 6 knots Greater than 6 miles
  • Scattered at 700' AGL
  • Broken at 2,500' AGL
From Dec-15 @ 13:00 to Dec-15 @ 18:00
FM151300 VRB05KT P6SM SCT010 BKN020
Wind Visibility Clouds
Variable at 5 knots Greater than 6 miles
  • Scattered at 1,000' AGL
  • Broken at 2,000' AGL
KISM 142208Z 1422/1518 16010KT P6SM VCSH FEW040 OVC080 TEMPO 1422/1501 4SM SHRA BKN030 FM150100 19007KT 6SM SHRA VCTS SCT015 BKN030CB FM150600 21006KT P6SM VCSH SCT007 BKN025 FM151300 VRB05KT P6SM SCT010 BKN020
Issued Dec-14 @ 22:08 UTC
(13 minutes ago)
Valid From Dec-14 @ 22:00 UTC
(21 minutes ago)
Valid To Dec-15 @ 18:00 UTC
(in 20 hours)
Dec-14 @ 22:00 - Dec-15 @ 01:00
Wind Visibility
160° at 10 knots Greater than 6 miles
Clouds
  • Few at 4,000' AGL
  • Overcast at 8,000' AGL
Temporary Dec-14 @ 22:00 - Dec-15 @ 01:00
Clouds
  • Broken at 3,000' AGL
Conditions
  • Rain
From Dec-15 @ 01:00 - Dec-15 @ 06:00
Wind Visibility
190° at 7 knots 6 miles
Clouds
  • Scattered at 1,500' AGL
  • Broken at 3,000' AGL
Conditions
  • Rain
  • Area Thunderstorm
From Dec-15 @ 06:00 - Dec-15 @ 13:00
Wind Visibility
210° at 6 knots Greater than 6 miles
Clouds
  • Scattered at 700' AGL
  • Broken at 2,500' AGL
From Dec-15 @ 13:00 - Dec-15 @ 18:00
Wind Visibility
Variable at 5 knots Greater than 6 miles
Clouds
  • Scattered at 1,000' AGL
  • Broken at 2,000' AGL